OISF  Fasa  Airport

Fasa, Iran

Add Bookmark
ICAO OISF
IATA FAZ
Type Airport
Status Operational
Latitude
28° 53' 30" N
28.891800
Longitude
53° 43' 23" E
53.723301
Local (GMT +3.5 ) UTC
Dec 7, 2016 05:51 pm Dec 7, 2016 14:21
Sunrise-Sunset Local UTC
Begin Civil Twilight 06:08 am 02:38
Sunrise 06:34 am 03:04
Sunset 04:59 pm 13:29
End Civil Twilight 05:24 pm 13:54
VFR
VFR
MVFR
MVFR
IFR
IFR
LIFR
LIFR
Unknown
No Data

Current Weather

METAR Observed VFR
OISF 071400Z 23004KT 9999 FEW040 19/01 Q1018 Wed, Dec 7, 2016 @ 14:00 UTC
(21 Minutes ago)
Visual Flight Rules
Wind Visibility Clouds Conditions
230° at 4 knots (7 kph) 10 km or more
  • Few at 4,000 ft AGL
  • No significant weather
Temperatures Readings Precipitation
Current Temp
19°C
66°F
Dewpoint
1°C
34°F
Humidity 30%
Altimeter 30.06" Hg
Sea Level Pressure 1,018 mb
Field Elevation
1,383 m
4,537 ft
None Recorded
-
-

CheckWX.com is intended as a tool to help pilots better visualize weather data. It is not intended as a substitute for an official weather briefing obtained from a Flight Service Station. CheckWX.com does not meet the FAA requirements for an official pre-flight weather briefing. Therefore, it's important that pilots still call and obtain an official FSS pre-flight weather briefing.

© 2007-2016 CheckWX.com
14:21:38 UTC